Observations for RONCHI LEGIONARI AB, Italy (LIPQ)

LIPQ 240920Z 18003KT 130V270 CAVOK 29/18 Q1018  
LIPQ 240850Z VRB02KT CAVOK 28/17 Q1018  
LIPQ 240820Z VRB02KT CAVOK 27/16 Q1018  
LIPQ 240750Z VRB02KT CAVOK 27/17 Q1018  
LIPQ 240720Z 26003KT 210V310 CAVOK 26/19 Q1018  
LIPQ 240650Z 19003KT 140V220 CAVOK 25/18 Q1018  
LIPQ 240620Z 09004KT 070V130 CAVOK 24/18 Q1018  
LIPQ 240550Z 11003KT CAVOK 23/18 Q1018  
LIPQ 240520Z 10002KT CAVOK 21/18 Q1018  
LIPQ 240450Z VRB01KT CAVOK 20/18 Q1018  
LIPQ 240420Z VRB01KT CAVOK 19/18 Q1018  
LIPQ 240350Z AUTO 07003KT 9999 NCD 18/17 Q1018  
LIPQ 240320Z AUTO 35003KT 9999 NCD 18/17 Q1017  
LIPQ 240250Z AUTO 03003KT 9999 NCD 18/18 Q1017  
LIPQ 240220Z AUTO VRB02KT 9999 NCD 19/18 Q1017  
LIPQ 240150Z AUTO 35003KT 9999 NCD 19/18 Q1017  
LIPQ 240120Z AUTO 02004KT 9999 NCD 19/18 Q1017  
LIPQ 240050Z AUTO 36004KT 340V050 9999 NCD 19/19 Q1017  
LIPQ 240020Z AUTO 36004KT 9999 NCD 19/18 Q1017  
LIPQ 232350Z AUTO VRB02KT 9999 NCD 19/19 Q1017  
LIPQ 232320Z AUTO 04002KT 9999 NCD 20/19 Q1017  
LIPQ 232250Z AUTO 30003KT 9999 NCD 20/19 Q1017  
LIPQ 232220Z AUTO 35003KT 9999 NCD 20/19 Q1017  
LIPQ 232150Z 13004KT CAVOK 21/19 Q1016  
LIPQ 232120Z 12006KT CAVOK 21/19 Q1016  
LIPQ 232050Z VRB02KT CAVOK 21/19 Q1016  
LIPQ 232020Z 08004KT 9999 FEW060 22/20 Q1016
LIPQ 231950Z 05002KT CAVOK 21/20 Q1016  
LIPQ 231920Z 28005KT 9999 FEW060 21/20 Q1015
LIPQ 231850Z 10003KT 9999 FEW060 23/20 Q1015
LIPQ 231820Z 10002KT 9999 FEW060 23/20 Q1015
LIPQ 231750Z VRB01KT 9999 SCT060 23/19 Q1015
LIPQ 231720Z 28004KT 250V310 9999 SCT030 SCT070 22/19 Q1014 
LIPQ 231650Z 28004KT 250V310 9999 VCSH SCT040 SCT070 22/20 Q1015
LIPQ 231620Z 20004KT 180V240 9999 -RA SCT040 SCT070 23/19 Q1014 
LIPQ 231550Z 18005KT 9999 -TSRA FEW015CB SCT030 22/19 Q1014 RETSRA WS R09   
LIPQ 231520Z 12014KT 6000 -TSRA FEW015CB SCT030 25/17 Q1014 WS IN APCH R09  
LIPQ 231520Z 12014KT 6000 -TSRA FEW015CB SCT030 25/17 Q1014 RMK WS IN APCH R09
LIPQ 231450Z 25007KT 9999 VCSH SCT030 28/19 Q1014   
LIPQ 231420Z 24006KT 180V280 9999 SCT030 28/19 Q1014
LIPQ 231350Z 23004KT 150V310 9999 FEW030 28/18 Q1014
LIPQ 231320Z 25004KT 220V290 9999 FEW030 SCT065 28/19 Q1014 
LIPQ 231250Z VRB03KT 9999 FEW065 SCT100 28/19 Q1014 
LIPQ 231220Z VRB03KT 9999 FEW045 SCT080 27/19 Q1014 
LIPQ 231150Z 28004KT 210V330 9999 FEW045 27/18 Q1014
LIPQ 231120Z 23006KT 180V270 9999 FEW045 SCT080 26/19 Q1014 
LIPQ 231050Z 23007KT 200V270 9999 FEW035 27/20 Q1014
LIPQ 231020Z VRB04KT CAVOK 27/19 Q1014  
LIPQ 230950Z VRB04KT CAVOK 26/19 Q1014  
LIPQ 230920Z VRB03KT CAVOK 25/18 Q1014  
LIPQ 230850Z 23004KT 170V280 CAVOK 25/19 Q1014